sensor_id;sensor_type;location;lat;lon;timestamp;P1;durP1;ratioP1;P2;durP2;ratioP2
79526;SDS011;68974;47.754;-3.364;2023-04-03T00:01:18;3.70;;;1.60;;
79526;SDS011;68974;47.754;-3.364;2023-04-03T00:03:44;2.20;;;1.85;;
79526;SDS011;68974;47.754;-3.364;2023-04-03T00:06:10;2.58;;;1.83;;
79526;SDS011;68974;47.754;-3.364;2023-04-03T00:08:37;1.77;;;1.27;;
79526;SDS011;68974;47.754;-3.364;2023-04-03T00:11:03;3.35;;;1.63;;
79526;SDS011;68974;47.754;-3.364;2023-04-03T00:13:29;2.42;;;1.60;;
79526;SDS011;68974;47.754;-3.364;2023-04-03T00:15:55;3.53;;;1.95;;
79526;SDS011;68974;47.754;-3.364;2023-04-03T00:18:20;3.67;;;1.60;;
79526;SDS011;68974;47.754;-3.364;2023-04-03T00:20:46;2.17;;;1.40;;
79526;SDS011;68974;47.754;-3.364;2023-04-03T00:23:12;5.53;;;2.15;;
79526;SDS011;68974;47.754;-3.364;2023-04-03T00:25:37;4.28;;;1.70;;
79526;SDS011;68974;47.754;-3.364;2023-04-03T00:28:03;4.32;;;2.45;;
79526;SDS011;68974;47.754;-3.364;2023-04-03T00:30:30;3.28;;;1.63;;
79526;SDS011;68974;47.754;-3.364;2023-04-03T00:32:55;5.22;;;1.90;;
79526;SDS011;68974;47.754;-3.364;2023-04-03T00:35:22;3.35;;;2.25;;
79526;SDS011;68974;47.754;-3.364;2023-04-03T00:37:50;4.35;;;2.00;;
79526;SDS011;68974;47.754;-3.364;2023-04-03T00:40:17;9.15;;;2.20;;
79526;SDS011;68974;47.754;-3.364;2023-04-03T00:42:43;4.03;;;2.10;;
79526;SDS011;68974;47.754;-3.364;2023-04-03T00:47:36;3.37;;;2.07;;
79526;SDS011;68974;47.754;-3.364;2023-04-03T00:50:04;8.82;;;2.60;;
79526;SDS011;68974;47.754;-3.364;2023-04-03T00:52:30;4.97;;;2.00;;
79526;SDS011;68974;47.754;-3.364;2023-04-03T00:54:57;2.67;;;2.15;;
79526;SDS011;68974;47.754;-3.364;2023-04-03T00:57:27;3.13;;;1.88;;
79526;SDS011;68974;47.754;-3.364;2023-04-03T00:59:56;4.97;;;1.98;;
79526;SDS011;68974;47.754;-3.364;2023-04-03T01:02:25;8.00;;;1.92;;
79526;SDS011;68974;47.754;-3.364;2023-04-03T01:04:51;3.97;;;2.13;;
79526;SDS011;68974;47.754;-3.364;2023-04-03T01:07:17;6.93;;;2.20;;
79526;SDS011;68974;47.754;-3.364;2023-04-03T01:09:48;4.53;;;2.10;;
79526;SDS011;68974;47.754;-3.364;2023-04-03T01:12:23;4.47;;;2.10;;
79526;SDS011;68974;47.754;-3.364;2023-04-03T01:14:50;3.90;;;2.00;;
79526;SDS011;68974;47.754;-3.364;2023-04-03T01:17:27;3.92;;;2.08;;
79526;SDS011;68974;47.754;-3.364;2023-04-03T01:25:34;2.80;;;2.10;;
79526;SDS011;68974;47.754;-3.364;2023-04-03T01:28:02;5.30;;;1.83;;
79526;SDS011;68974;47.754;-3.364;2023-04-03T01:30:31;6.05;;;2.38;;
79526;SDS011;68974;47.754;-3.364;2023-04-03T01:32:59;5.78;;;2.65;;
79526;SDS011;68974;47.754;-3.364;2023-04-03T01:35:24;2.85;;;2.30;;
79526;SDS011;68974;47.754;-3.364;2023-04-03T01:37:50;6.05;;;3.17;;
79526;SDS011;68974;47.754;-3.364;2023-04-03T01:40:15;10.07;;;3.22;;
79526;SDS011;68974;47.754;-3.364;2023-04-03T01:42:41;6.20;;;2.40;;
79526;SDS011;68974;47.754;-3.364;2023-04-03T01:45:06;5.97;;;2.08;;
79526;SDS011;68974;47.754;-3.364;2023-04-03T01:47:32;2.80;;;2.10;;
79526;SDS011;68974;47.754;-3.364;2023-04-03T01:49:57;4.18;;;2.53;;
79526;SDS011;68974;47.754;-3.364;2023-04-03T01:52:23;6.65;;;2.50;;
79526;SDS011;68974;47.754;-3.364;2023-04-03T01:54:48;4.43;;;2.30;;
79526;SDS011;68974;47.754;-3.364;2023-04-03T01:57:14;3.55;;;1.92;;
79526;SDS011;68974;47.754;-3.364;2023-04-03T01:59:40;2.78;;;2.10;;
79526;SDS011;68974;47.754;-3.364;2023-04-03T02:02:05;4.07;;;1.83;;
79526;SDS011;68974;47.754;-3.364;2023-04-03T02:04:31;5.60;;;1.98;;
79526;SDS011;68974;47.754;-3.364;2023-04-03T02:06:56;4.53;;;1.92;;
79526;SDS011;68974;47.754;-3.364;2023-04-03T02:09:21;8.10;;;2.13;;
79526;SDS011;68974;47.754;-3.364;2023-04-03T02:11:47;3.53;;;2.20;;
79526;SDS011;68974;47.754;-3.364;2023-04-03T02:14:12;6.05;;;3.15;;
79526;SDS011;68974;47.754;-3.364;2023-04-03T02:16:38;5.32;;;1.67;;
79526;SDS011;68974;47.754;-3.364;2023-04-03T02:19:03;5.50;;;2.75;;
79526;SDS011;68974;47.754;-3.364;2023-04-03T02:21:29;3.85;;;2.28;;
79526;SDS011;68974;47.754;-3.364;2023-04-03T02:23:54;6.05;;;2.28;;
79526;SDS011;68974;47.754;-3.364;2023-04-03T02:26:19;4.40;;;2.55;;
79526;SDS011;68974;47.754;-3.364;2023-04-03T02:28:46;5.07;;;1.85;;
79526;SDS011;68974;47.754;-3.364;2023-04-03T02:31:11;6.00;;;2.20;;
79526;SDS011;68974;47.754;-3.364;2023-04-03T02:33:37;5.47;;;2.42;;
79526;SDS011;68974;47.754;-3.364;2023-04-03T02:36:06;2.53;;;2.05;;
79526;SDS011;68974;47.754;-3.364;2023-04-03T02:38:32;5.78;;;2.53;;
79526;SDS011;68974;47.754;-3.364;2023-04-03T02:41:01;3.80;;;2.67;;
79526;SDS011;68974;47.754;-3.364;2023-04-03T02:43:28;5.43;;;2.40;;
79526;SDS011;68974;47.754;-3.364;2023-04-03T02:45:53;4.30;;;2.55;;
79526;SDS011;68974;47.754;-3.364;2023-04-03T02:48:19;2.85;;;2.15;;
79526;SDS011;68974;47.754;-3.364;2023-04-03T02:50:44;5.50;;;2.33;;
79526;SDS011;68974;47.754;-3.364;2023-04-03T02:53:09;3.75;;;2.08;;
79526;SDS011;68974;47.754;-3.364;2023-04-03T02:55:35;5.20;;;2.38;;
79526;SDS011;68974;47.754;-3.364;2023-04-03T02:58:00;2.85;;;2.30;;
79526;SDS011;68974;47.754;-3.364;2023-04-03T03:00:25;3.72;;;2.28;;
79526;SDS011;68974;47.754;-3.364;2023-04-03T03:02:51;6.00;;;3.03;;
79526;SDS011;68974;47.754;-3.364;2023-04-03T03:05:16;4.10;;;2.22;;
79526;SDS011;68974;47.754;-3.364;2023-04-03T03:07:42;7.07;;;2.92;;
79526;SDS011;68974;47.754;-3.364;2023-04-03T03:10:07;2.25;;;1.88;;
79526;SDS011;68974;47.754;-3.364;2023-04-03T03:12:33;6.43;;;2.47;;
79526;SDS011;68974;47.754;-3.364;2023-04-03T03:14:58;7.32;;;2.72;;
79526;SDS011;68974;47.754;-3.364;2023-04-03T03:17:24;5.90;;;2.53;;
79526;SDS011;68974;47.754;-3.364;2023-04-03T03:19:49;6.18;;;2.28;;
79526;SDS011;68974;47.754;-3.364;2023-04-03T03:22:16;3.42;;;2.05;;
79526;SDS011;68974;47.754;-3.364;2023-04-03T03:24:41;6.10;;;2.63;;
79526;SDS011;68974;47.754;-3.364;2023-04-03T03:27:06;9.13;;;2.90;;
79526;SDS011;68974;47.754;-3.364;2023-04-03T03:29:32;5.07;;;2.40;;
79526;SDS011;68974;47.754;-3.364;2023-04-03T03:31:57;6.18;;;2.60;;
79526;SDS011;68974;47.754;-3.364;2023-04-03T03:34:22;5.20;;;2.30;;
79526;SDS011;68974;47.754;-3.364;2023-04-03T03:36:48;4.18;;;2.55;;
79526;SDS011;68974;47.754;-3.364;2023-04-03T03:39:13;5.75;;;2.80;;
79526;SDS011;68974;47.754;-3.364;2023-04-03T03:41:39;4.65;;;2.85;;
79526;SDS011;68974;47.754;-3.364;2023-04-03T03:44:04;7.30;;;2.97;;
79526;SDS011;68974;47.754;-3.364;2023-04-03T03:46:29;5.60;;;2.50;;
79526;SDS011;68974;47.754;-3.364;2023-04-03T03:48:55;3.88;;;2.33;;
79526;SDS011;68974;47.754;-3.364;2023-04-03T03:51:21;7.32;;;2.50;;
79526;SDS011;68974;47.754;-3.364;2023-04-03T03:53:46;7.63;;;2.72;;
79526;SDS011;68974;47.754;-3.364;2023-04-03T03:56:11;4.95;;;3.13;;
79526;SDS011;68974;47.754;-3.364;2023-04-03T03:58:37;6.20;;;2.83;;
79526;SDS011;68974;47.754;-3.364;2023-04-03T04:01:03;8.18;;;3.13;;
79526;SDS011;68974;47.754;-3.364;2023-04-03T04:03:30;4.30;;;2.65;;
79526;SDS011;68974;47.754;-3.364;2023-04-03T04:05:56;5.03;;;2.58;;
79526;SDS011;68974;47.754;-3.364;2023-04-03T04:08:22;7.78;;;2.92;;
79526;SDS011;68974;47.754;-3.364;2023-04-03T04:10:48;5.88;;;2.70;;
79526;SDS011;68974;47.754;-3.364;2023-04-03T04:13:13;6.90;;;3.00;;
79526;SDS011;68974;47.754;-3.364;2023-04-03T04:15:39;9.63;;;3.22;;
79526;SDS011;68974;47.754;-3.364;2023-04-03T04:18:05;7.78;;;2.45;;
79526;SDS011;68974;47.754;-3.364;2023-04-03T04:20:30;7.88;;;3.58;;
79526;SDS011;68974;47.754;-3.364;2023-04-03T04:22:56;9.77;;;2.78;;
79526;SDS011;68974;47.754;-3.364;2023-04-03T04:25:21;6.13;;;2.70;;
79526;SDS011;68974;47.754;-3.364;2023-04-03T04:27:46;5.47;;;2.50;;
79526;SDS011;68974;47.754;-3.364;2023-04-03T04:30:12;5.72;;;2.38;;
79526;SDS011;68974;47.754;-3.364;2023-04-03T04:32:38;3.42;;;2.45;;
79526;SDS011;68974;47.754;-3.364;2023-04-03T04:35:04;6.93;;;2.70;;
79526;SDS011;68974;47.754;-3.364;2023-04-03T04:37:29;7.30;;;3.20;;
79526;SDS011;68974;47.754;-3.364;2023-04-03T04:39:55;4.60;;;2.17;;
79526;SDS011;68974;47.754;-3.364;2023-04-03T04:42:20;8.55;;;2.90;;
79526;SDS011;68974;47.754;-3.364;2023-04-03T04:44:46;8.23;;;3.22;;
79526;SDS011;68974;47.754;-3.364;2023-04-03T04:47:11;7.25;;;2.75;;
79526;SDS011;68974;47.754;-3.364;2023-04-03T04:49:36;9.32;;;2.80;;
79526;SDS011;68974;47.754;-3.364;2023-04-03T04:52:02;9.75;;;2.75;;
79526;SDS011;68974;47.754;-3.364;2023-04-03T04:54:28;5.63;;;3.15;;
79526;SDS011;68974;47.754;-3.364;2023-04-03T04:56:53;7.75;;;2.75;;
79526;SDS011;68974;47.754;-3.364;2023-04-03T04:59:18;6.50;;;2.53;;
79526;SDS011;68974;47.754;-3.364;2023-04-03T05:01:44;5.43;;;2.65;;
79526;SDS011;68974;47.754;-3.364;2023-04-03T05:04:09;6.32;;;2.72;;
79526;SDS011;68974;47.754;-3.364;2023-04-03T05:06:35;4.75;;;2.55;;
79526;SDS011;68974;47.754;-3.364;2023-04-03T05:09:01;7.15;;;2.45;;
79526;SDS011;68974;47.754;-3.364;2023-04-03T05:11:26;9.48;;;4.53;;
79526;SDS011;68974;47.754;-3.364;2023-04-03T05:13:52;10.60;;;3.22;;
79526;SDS011;68974;47.754;-3.364;2023-04-03T05:16:17;9.93;;;3.00;;
79526;SDS011;68974;47.754;-3.364;2023-04-03T05:18:43;11.60;;;3.15;;
79526;SDS011;68974;47.754;-3.364;2023-04-03T05:21:08;7.67;;;2.87;;
79526;SDS011;68974;47.754;-3.364;2023-04-03T05:23:33;6.13;;;3.10;;
79526;SDS011;68974;47.754;-3.364;2023-04-03T05:25:59;15.82;;;3.50;;
79526;SDS011;68974;47.754;-3.364;2023-04-03T05:28:25;11.48;;;2.90;;
79526;SDS011;68974;47.754;-3.364;2023-04-03T05:30:54;8.80;;;2.67;;
79526;SDS011;68974;47.754;-3.364;2023-04-03T05:33:21;5.47;;;2.80;;
79526;SDS011;68974;47.754;-3.364;2023-04-03T05:35:46;6.40;;;2.45;;
79526;SDS011;68974;47.754;-3.364;2023-04-03T05:38:12;4.85;;;2.40;;
79526;SDS011;68974;47.754;-3.364;2023-04-03T05:40:37;13.48;;;3.25;;
79526;SDS011;68974;47.754;-3.364;2023-04-03T05:43:03;6.32;;;2.90;;
79526;SDS011;68974;47.754;-3.364;2023-04-03T05:45:28;8.23;;;2.55;;
79526;SDS011;68974;47.754;-3.364;2023-04-03T05:47:54;6.93;;;2.80;;
79526;SDS011;68974;47.754;-3.364;2023-04-03T05:50:19;9.45;;;2.90;;
79526;SDS011;68974;47.754;-3.364;2023-04-03T05:52:45;12.38;;;3.33;;
79526;SDS011;68974;47.754;-3.364;2023-04-03T05:55:13;9.50;;;2.90;;
79526;SDS011;68974;47.754;-3.364;2023-04-03T05:57:39;16.05;;;4.80;;
79526;SDS011;68974;47.754;-3.364;2023-04-03T06:00:05;6.47;;;2.90;;
79526;SDS011;68974;47.754;-3.364;2023-04-03T06:02:34;10.20;;;2.80;;
79526;SDS011;68974;47.754;-3.364;2023-04-03T06:05:00;10.40;;;3.50;;
79526;SDS011;68974;47.754;-3.364;2023-04-03T06:07:26;5.93;;;2.42;;
79526;SDS011;68974;47.754;-3.364;2023-04-03T06:09:54;9.63;;;3.20;;
79526;SDS011;68974;47.754;-3.364;2023-04-03T06:12:21;7.75;;;2.92;;
79526;SDS011;68974;47.754;-3.364;2023-04-03T06:14:47;6.57;;;2.92;;
79526;SDS011;68974;47.754;-3.364;2023-04-03T06:17:13;11.52;;;2.95;;
79526;SDS011;68974;47.754;-3.364;2023-04-03T06:19:39;9.05;;;3.42;;
79526;SDS011;68974;47.754;-3.364;2023-04-03T06:22:05;12.98;;;2.80;;
79526;SDS011;68974;47.754;-3.364;2023-04-03T06:24:31;9.15;;;3.45;;
79526;SDS011;68974;47.754;-3.364;2023-04-03T06:26:57;10.18;;;4.40;;
79526;SDS011;68974;47.754;-3.364;2023-04-03T06:29:23;7.57;;;2.42;;
79526;SDS011;68974;47.754;-3.364;2023-04-03T06:31:49;11.75;;;3.10;;
79526;SDS011;68974;47.754;-3.364;2023-04-03T06:34:15;15.63;;;2.92;;
79526;SDS011;68974;47.754;-3.364;2023-04-03T06:36:41;11.38;;;3.28;;
79526;SDS011;68974;47.754;-3.364;2023-04-03T06:39:08;11.02;;;3.15;;
79526;SDS011;68974;47.754;-3.364;2023-04-03T06:41:38;9.35;;;2.67;;
79526;SDS011;68974;47.754;-3.364;2023-04-03T06:44:03;11.18;;;2.83;;
79526;SDS011;68974;47.754;-3.364;2023-04-03T06:46:29;8.10;;;3.05;;
79526;SDS011;68974;47.754;-3.364;2023-04-03T06:48:54;9.02;;;2.55;;
79526;SDS011;68974;47.754;-3.364;2023-04-03T06:51:21;6.53;;;2.22;;
79526;SDS011;68974;47.754;-3.364;2023-04-03T06:53:48;9.93;;;3.55;;
79526;SDS011;68974;47.754;-3.364;2023-04-03T06:56:15;8.23;;;3.17;;
79526;SDS011;68974;47.754;-3.364;2023-04-03T06:58:41;6.97;;;2.42;;
79526;SDS011;68974;47.754;-3.364;2023-04-03T07:01:08;12.68;;;2.83;;
79526;SDS011;68974;47.754;-3.364;2023-04-03T07:03:35;14.27;;;3.10;;
79526;SDS011;68974;47.754;-3.364;2023-04-03T07:06:01;10.48;;;2.53;;
79526;SDS011;68974;47.754;-3.364;2023-04-03T07:08:28;11.18;;;2.85;;
79526;SDS011;68974;47.754;-3.364;2023-04-03T07:10:53;5.00;;;2.10;;
79526;SDS011;68974;47.754;-3.364;2023-04-03T07:13:19;7.43;;;2.65;;
79526;SDS011;68974;47.754;-3.364;2023-04-03T07:15:45;6.38;;;2.30;;
79526;SDS011;68974;47.754;-3.364;2023-04-03T07:18:10;14.55;;;2.47;;
79526;SDS011;68974;47.754;-3.364;2023-04-03T07:20:36;5.35;;;2.35;;
79526;SDS011;68974;47.754;-3.364;2023-04-03T07:23:01;12.38;;;2.70;;
79526;SDS011;68974;47.754;-3.364;2023-04-03T07:25:27;10.88;;;2.67;;
79526;SDS011;68974;47.754;-3.364;2023-04-03T07:27:53;11.40;;;2.42;;
79526;SDS011;68974;47.754;-3.364;2023-04-03T07:30:19;13.18;;;2.95;;
79526;SDS011;68974;47.754;-3.364;2023-04-03T07:32:45;15.55;;;3.05;;
79526;SDS011;68974;47.754;-3.364;2023-04-03T07:35:11;14.25;;;2.20;;
79526;SDS011;68974;47.754;-3.364;2023-04-03T07:37:37;9.02;;;3.13;;
79526;SDS011;68974;47.754;-3.364;2023-04-03T07:40:03;13.98;;;3.63;;
79526;SDS011;68974;47.754;-3.364;2023-04-03T07:42:29;7.30;;;2.25;;
79526;SDS011;68974;47.754;-3.364;2023-04-03T07:44:54;5.20;;;1.90;;
79526;SDS011;68974;47.754;-3.364;2023-04-03T07:47:20;11.63;;;2.33;;
79526;SDS011;68974;47.754;-3.364;2023-04-03T07:49:46;7.70;;;2.17;;
79526;SDS011;68974;47.754;-3.364;2023-04-03T07:52:12;12.45;;;2.83;;
79526;SDS011;68974;47.754;-3.364;2023-04-03T07:54:39;8.32;;;2.60;;
79526;SDS011;68974;47.754;-3.364;2023-04-03T07:57:05;8.85;;;2.00;;
79526;SDS011;68974;47.754;-3.364;2023-04-03T07:59:30;6.18;;;1.75;;
79526;SDS011;68974;47.754;-3.364;2023-04-03T08:01:56;6.97;;;2.50;;
79526;SDS011;68974;47.754;-3.364;2023-04-03T08:04:22;6.32;;;2.00;;
79526;SDS011;68974;47.754;-3.364;2023-04-03T08:06:47;10.63;;;1.92;;
79526;SDS011;68974;47.754;-3.364;2023-04-03T08:09:16;7.05;;;2.15;;
79526;SDS011;68974;47.754;-3.364;2023-04-03T08:11:41;7.40;;;1.98;;
79526;SDS011;68974;47.754;-3.364;2023-04-03T08:14:08;6.75;;;2.35;;
79526;SDS011;68974;47.754;-3.364;2023-04-03T08:16:35;5.15;;;1.48;;
79526;SDS011;68974;47.754;-3.364;2023-04-03T08:19:01;12.15;;;2.55;;
79526;SDS011;68974;47.754;-3.364;2023-04-03T08:21:29;8.85;;;2.03;;
79526;SDS011;68974;47.754;-3.364;2023-04-03T08:23:55;9.32;;;2.22;;
79526;SDS011;68974;47.754;-3.364;2023-04-03T08:26:21;8.88;;;1.80;;
79526;SDS011;68974;47.754;-3.364;2023-04-03T08:28:47;9.55;;;1.85;;
79526;SDS011;68974;47.754;-3.364;2023-04-03T08:31:14;13.05;;;2.03;;
79526;SDS011;68974;47.754;-3.364;2023-04-03T08:33:42;7.22;;;1.83;;
79526;SDS011;68974;47.754;-3.364;2023-04-03T08:36:14;4.60;;;1.73;;
79526;SDS011;68974;47.754;-3.364;2023-04-03T08:38:42;9.90;;;1.90;;
79526;SDS011;68974;47.754;-3.364;2023-04-03T08:43:39;4.78;;;1.52;;
79526;SDS011;68974;47.754;-3.364;2023-04-03T08:46:20;10.63;;;2.10;;
79526;SDS011;68974;47.754;-3.364;2023-04-03T08:48:51;7.18;;;1.88;;
79526;SDS011;68974;47.754;-3.364;2023-04-03T08:51:17;10.18;;;2.00;;
79526;SDS011;68974;47.754;-3.364;2023-04-03T08:56:23;12.15;;;2.13;;
79526;SDS011;68974;47.754;-3.364;2023-04-03T08:58:55;9.45;;;1.77;;
79526;SDS011;68974;47.754;-3.364;2023-04-03T09:01:35;6.80;;;2.33;;
79526;SDS011;68974;47.754;-3.364;2023-04-03T09:04:05;10.73;;;2.10;;
79526;SDS011;68974;47.754;-3.364;2023-04-03T09:06:36;7.15;;;2.13;;
79526;SDS011;68974;47.754;-3.364;2023-04-03T09:11:46;13.43;;;2.47;;
79526;SDS011;68974;47.754;-3.364;2023-04-03T09:14:59;5.20;;;1.70;;
79526;SDS011;68974;47.754;-3.364;2023-04-03T09:20:38;9.07;;;2.65;;
79526;SDS011;68974;47.754;-3.364;2023-04-03T09:22:50;9.30;;;2.25;;
79526;SDS011;68974;47.754;-3.364;2023-04-03T09:25:27;7.25;;;2.00;;
79526;SDS011;68974;47.754;-3.364;2023-04-03T09:27:58;5.90;;;1.80;;
79526;SDS011;68974;47.754;-3.364;2023-04-03T09:30:25;7.70;;;2.05;;
79526;SDS011;68974;47.754;-3.364;2023-04-03T09:32:53;6.72;;;1.90;;
79526;SDS011;68974;47.754;-3.364;2023-04-03T09:35:22;8.55;;;2.53;;
79526;SDS011;68974;47.754;-3.364;2023-04-03T09:38:31;5.05;;;1.92;;
79526;SDS011;68974;47.754;-3.364;2023-04-03T09:43:37;10.63;;;3.08;;
79526;SDS011;68974;47.754;-3.364;2023-04-03T09:49:03;6.18;;;2.00;;
79526;SDS011;68974;47.754;-3.364;2023-04-03T09:51:31;6.47;;;2.08;;
79526;SDS011;68974;47.754;-3.364;2023-04-03T09:53:57;7.43;;;2.20;;
79526;SDS011;68974;47.754;-3.364;2023-04-03T09:56:24;5.88;;;2.10;;
79526;SDS011;68974;47.754;-3.364;2023-04-03T09:59:05;9.25;;;2.33;;
79526;SDS011;68974;47.754;-3.364;2023-04-03T10:01:38;9.38;;;3.00;;
79526;SDS011;68974;47.754;-3.364;2023-04-03T10:04:10;7.45;;;2.10;;
79526;SDS011;68974;47.754;-3.364;2023-04-03T10:06:37;6.22;;;2.03;;
79526;SDS011;68974;47.754;-3.364;2023-04-03T10:09:13;7.68;;;2.95;;
79526;SDS011;68974;47.754;-3.364;2023-04-03T10:12:00;7.05;;;2.47;;
79526;SDS011;68974;47.754;-3.364;2023-04-03T10:14:38;6.38;;;2.33;;
79526;SDS011;68974;47.754;-3.364;2023-04-03T10:35:44;9.88;;;2.80;;
79526;SDS011;68974;47.754;-3.364;2023-04-03T10:38:24;5.45;;;2.72;;
79526;SDS011;68974;47.754;-3.364;2023-04-03T10:42:08;5.03;;;2.15;;
79526;SDS011;68974;47.754;-3.364;2023-04-03T10:44:32;5.32;;;2.47;;
79526;SDS011;68974;47.754;-3.364;2023-04-03T10:47:19;7.40;;;2.28;;
79526;SDS011;68974;47.754;-3.364;2023-04-03T10:49:56;6.95;;;2.85;;
79526;SDS011;68974;47.754;-3.364;2023-04-03T10:52:39;7.78;;;2.92;;
79526;SDS011;68974;47.754;-3.364;2023-04-03T10:57:57;7.43;;;2.47;;
79526;SDS011;68974;47.754;-3.364;2023-04-03T11:03:08;6.30;;;2.50;;
79526;SDS011;68974;47.754;-3.364;2023-04-03T11:05:49;9.57;;;3.10;;
79526;SDS011;68974;47.754;-3.364;2023-04-03T11:10:45;6.28;;;2.95;;
79526;SDS011;68974;47.754;-3.364;2023-04-03T11:13:15;6.38;;;2.50;;
79526;SDS011;68974;47.754;-3.364;2023-04-03T11:15:45;9.50;;;2.60;;
79526;SDS011;68974;47.754;-3.364;2023-04-03T11:18:19;9.30;;;2.92;;
79526;SDS011;68974;47.754;-3.364;2023-04-03T11:21:26;6.50;;;2.60;;
79526;SDS011;68974;47.754;-3.364;2023-04-03T11:23:57;7.63;;;2.90;;
79526;SDS011;68974;47.754;-3.364;2023-04-03T11:26:25;5.97;;;3.15;;
79526;SDS011;68974;47.754;-3.364;2023-04-03T11:28:56;9.85;;;3.80;;
79526;SDS011;68974;47.754;-3.364;2023-04-03T11:31:29;7.05;;;2.53;;
79526;SDS011;68974;47.754;-3.364;2023-04-03T11:36:52;3.95;;;2.30;;
79526;SDS011;68974;47.754;-3.364;2023-04-03T11:39:30;8.32;;;3.25;;
79526;SDS011;68974;47.754;-3.364;2023-04-03T11:45:16;9.60;;;3.25;;
79526;SDS011;68974;47.754;-3.364;2023-04-03T11:47:43;7.82;;;3.67;;
79526;SDS011;68974;47.754;-3.364;2023-04-03T11:50:44;8.55;;;3.10;;
79526;SDS011;68974;47.754;-3.364;2023-04-03T11:53:10;6.93;;;2.58;;
79526;SDS011;68974;47.754;-3.364;2023-04-03T11:56:03;8.50;;;3.47;;
79526;SDS011;68974;47.754;-3.364;2023-04-03T12:04:14;6.93;;;3.50;;
79526;SDS011;68974;47.754;-3.364;2023-04-03T12:11:59;4.93;;;2.70;;
79526;SDS011;68974;47.754;-3.364;2023-04-03T12:14:27;9.90;;;3.38;;
79526;SDS011;68974;47.754;-3.364;2023-04-03T12:22:17;7.32;;;2.78;;
79526;SDS011;68974;47.754;-3.364;2023-04-03T12:24:47;7.63;;;3.28;;
79526;SDS011;68974;47.754;-3.364;2023-04-03T12:29:49;7.65;;;3.42;;
79526;SDS011;68974;47.754;-3.364;2023-04-03T12:38:14;5.95;;;2.65;;
79526;SDS011;68974;47.754;-3.364;2023-04-03T12:44:18;7.38;;;2.92;;
79526;SDS011;68974;47.754;-3.364;2023-04-03T12:46:52;6.68;;;2.85;;
79526;SDS011;68974;47.754;-3.364;2023-04-03T12:51:49;4.85;;;3.08;;
79526;SDS011;68974;47.754;-3.364;2023-04-03T12:54:16;4.15;;;2.38;;
79526;SDS011;68974;47.754;-3.364;2023-04-03T12:56:48;4.60;;;2.80;;
79526;SDS011;68974;47.754;-3.364;2023-04-03T13:01:42;4.78;;;2.70;;
79526;SDS011;68974;47.754;-3.364;2023-04-03T13:04:09;6.10;;;2.50;;
79526;SDS011;68974;47.754;-3.364;2023-04-03T13:06:41;5.93;;;2.38;;
79526;SDS011;68974;47.754;-3.364;2023-04-03T13:09:18;5.68;;;2.80;;
79526;SDS011;68974;47.754;-3.364;2023-04-03T13:14:37;4.85;;;2.78;;
79526;SDS011;68974;47.754;-3.364;2023-04-03T13:17:04;8.43;;;3.65;;
79526;SDS011;68974;47.754;-3.364;2023-04-03T13:19:29;6.22;;;3.30;;
79526;SDS011;68974;47.754;-3.364;2023-04-03T13:22:06;5.32;;;3.35;;
79526;SDS011;68974;47.754;-3.364;2023-04-03T13:24:36;4.93;;;3.25;;
79526;SDS011;68974;47.754;-3.364;2023-04-03T13:27:04;6.13;;;3.00;;
79526;SDS011;68974;47.754;-3.364;2023-04-03T13:29:31;5.55;;;2.72;;
79526;SDS011;68974;47.754;-3.364;2023-04-03T13:31:59;6.65;;;3.13;;
79526;SDS011;68974;47.754;-3.364;2023-04-03T13:34:35;7.43;;;3.10;;
79526;SDS011;68974;47.754;-3.364;2023-04-03T13:37:03;6.80;;;3.33;;
79526;SDS011;68974;47.754;-3.364;2023-04-03T13:39:30;5.65;;;3.08;;
79526;SDS011;68974;47.754;-3.364;2023-04-03T13:45:09;8.07;;;2.95;;
79526;SDS011;68974;47.754;-3.364;2023-04-03T13:47:41;6.18;;;3.13;;
79526;SDS011;68974;47.754;-3.364;2023-04-03T13:52:42;6.18;;;3.08;;
79526;SDS011;68974;47.754;-3.364;2023-04-03T13:55:51;8.35;;;3.60;;
79526;SDS011;68974;47.754;-3.364;2023-04-03T13:58:21;6.55;;;3.47;;
79526;SDS011;68974;47.754;-3.364;2023-04-03T14:00:50;6.82;;;3.28;;
79526;SDS011;68974;47.754;-3.364;2023-04-03T14:05:49;9.55;;;3.08;;
79526;SDS011;68974;47.754;-3.364;2023-04-03T14:08:14;5.82;;;3.30;;
79526;SDS011;68974;47.754;-3.364;2023-04-03T14:10:41;5.18;;;3.05;;
79526;SDS011;68974;47.754;-3.364;2023-04-03T14:13:08;7.28;;;3.53;;
79526;SDS011;68974;47.754;-3.364;2023-04-03T14:15:38;5.93;;;3.85;;
79526;SDS011;68974;47.754;-3.364;2023-04-03T14:18:05;5.93;;;3.90;;
79526;SDS011;68974;47.754;-3.364;2023-04-03T14:20:30;5.97;;;3.72;;
79526;SDS011;68974;47.754;-3.364;2023-04-03T14:22:56;8.13;;;2.97;;
79526;SDS011;68974;47.754;-3.364;2023-04-03T14:25:22;9.27;;;4.03;;
79526;SDS011;68974;47.754;-3.364;2023-04-03T14:27:49;8.40;;;3.33;;
79526;SDS011;68974;47.754;-3.364;2023-04-03T14:30:32;7.32;;;3.60;;
79526;SDS011;68974;47.754;-3.364;2023-04-03T14:32:59;3.90;;;2.88;;
79526;SDS011;68974;47.754;-3.364;2023-04-03T14:35:26;5.50;;;2.80;;
79526;SDS011;68974;47.754;-3.364;2023-04-03T14:37:53;8.02;;;3.60;;
79526;SDS011;68974;47.754;-3.364;2023-04-03T14:40:20;6.82;;;3.42;;
79526;SDS011;68974;47.754;-3.364;2023-04-03T14:42:48;5.13;;;3.13;;
79526;SDS011;68974;47.754;-3.364;2023-04-03T14:45:14;8.43;;;3.50;;
79526;SDS011;68974;47.754;-3.364;2023-04-03T14:47:51;6.45;;;4.10;;
79526;SDS011;68974;47.754;-3.364;2023-04-03T14:50:19;9.25;;;3.53;;
79526;SDS011;68974;47.754;-3.364;2023-04-03T14:52:48;7.03;;;3.42;;
79526;SDS011;68974;47.754;-3.364;2023-04-03T14:55:17;5.85;;;3.40;;
79526;SDS011;68974;47.754;-3.364;2023-04-03T14:57:44;6.70;;;3.58;;
79526;SDS011;68974;47.754;-3.364;2023-04-03T15:00:12;7.28;;;3.20;;
79526;SDS011;68974;47.754;-3.364;2023-04-03T15:02:39;5.55;;;2.72;;
79526;SDS011;68974;47.754;-3.364;2023-04-03T15:05:06;5.88;;;2.95;;
79526;SDS011;68974;47.754;-3.364;2023-04-03T15:07:35;4.45;;;3.00;;
79526;SDS011;68974;47.754;-3.364;2023-04-03T15:10:05;4.60;;;2.85;;
79526;SDS011;68974;47.754;-3.364;2023-04-03T15:12:43;5.25;;;3.05;;
79526;SDS011;68974;47.754;-3.364;2023-04-03T15:15:09;4.25;;;3.13;;
79526;SDS011;68974;47.754;-3.364;2023-04-03T15:17:34;5.63;;;3.10;;
79526;SDS011;68974;47.754;-3.364;2023-04-03T15:20:01;12.25;;;3.33;;
79526;SDS011;68974;47.754;-3.364;2023-04-03T15:22:28;4.63;;;2.97;;
79526;SDS011;68974;47.754;-3.364;2023-04-03T15:24:53;8.52;;;5.47;;
79526;SDS011;68974;47.754;-3.364;2023-04-03T15:27:18;7.22;;;3.90;;
79526;SDS011;68974;47.754;-3.364;2023-04-03T15:29:44;5.90;;;3.50;;
79526;SDS011;68974;47.754;-3.364;2023-04-03T15:32:10;8.18;;;3.80;;
79526;SDS011;68974;47.754;-3.364;2023-04-03T15:34:36;7.47;;;3.42;;
79526;SDS011;68974;47.754;-3.364;2023-04-03T15:37:03;6.43;;;4.20;;
79526;SDS011;68974;47.754;-3.364;2023-04-03T15:39:28;6.47;;;3.42;;
79526;SDS011;68974;47.754;-3.364;2023-04-03T15:41:54;4.75;;;3.90;;
79526;SDS011;68974;47.754;-3.364;2023-04-03T15:44:20;5.68;;;3.90;;
79526;SDS011;68974;47.754;-3.364;2023-04-03T15:46:46;5.60;;;3.53;;
79526;SDS011;68974;47.754;-3.364;2023-04-03T15:49:16;5.93;;;3.72;;
79526;SDS011;68974;47.754;-3.364;2023-04-03T15:51:43;6.75;;;3.65;;
79526;SDS011;68974;47.754;-3.364;2023-04-03T15:54:08;7.50;;;4.45;;
79526;SDS011;68974;47.754;-3.364;2023-04-03T15:56:34;6.05;;;3.88;;
79526;SDS011;68974;47.754;-3.364;2023-04-03T15:58:59;6.15;;;4.00;;
79526;SDS011;68974;47.754;-3.364;2023-04-03T16:01:25;9.38;;;4.70;;
79526;SDS011;68974;47.754;-3.364;2023-04-03T16:03:50;7.00;;;4.95;;
79526;SDS011;68974;47.754;-3.364;2023-04-03T16:06:16;7.88;;;5.10;;
79526;SDS011;68974;47.754;-3.364;2023-04-03T16:08:44;7.38;;;4.93;;
79526;SDS011;68974;47.754;-3.364;2023-04-03T16:11:11;7.32;;;4.05;;
79526;SDS011;68974;47.754;-3.364;2023-04-03T16:13:36;9.68;;;5.53;;
79526;SDS011;68974;47.754;-3.364;2023-04-03T16:16:02;8.73;;;5.95;;
79526;SDS011;68974;47.754;-3.364;2023-04-03T16:18:29;11.90;;;7.72;;
79526;SDS011;68974;47.754;-3.364;2023-04-03T16:20:55;7.45;;;4.45;;